sensor_id;sensor_type;location;lat;lon;timestamp;P1;durP1;ratioP1;P2;durP2;ratioP2
50319;SDS011;36226;53.464;9.852;2022-08-03T00:01:34;5.18;;;3.67;;
50319;SDS011;36226;53.464;9.852;2022-08-03T00:04:00;4.68;;;3.78;;
50319;SDS011;36226;53.464;9.852;2022-08-03T00:06:25;4.20;;;3.80;;
50319;SDS011;36226;53.464;9.852;2022-08-03T00:08:51;4.25;;;3.70;;
50319;SDS011;36226;53.464;9.852;2022-08-03T00:11:16;5.25;;;3.60;;
50319;SDS011;36226;53.464;9.852;2022-08-03T00:13:42;4.05;;;3.65;;
50319;SDS011;36226;53.464;9.852;2022-08-03T00:16:07;4.13;;;3.80;;
50319;SDS011;36226;53.464;9.852;2022-08-03T00:18:34;4.40;;;4.00;;
50319;SDS011;36226;53.464;9.852;2022-08-03T00:21:00;5.07;;;3.63;;
50319;SDS011;36226;53.464;9.852;2022-08-03T00:23:25;4.13;;;3.75;;
50319;SDS011;36226;53.464;9.852;2022-08-03T00:25:51;4.03;;;3.65;;
50319;SDS011;36226;53.464;9.852;2022-08-03T00:28:16;4.10;;;3.70;;
50319;SDS011;36226;53.464;9.852;2022-08-03T00:30:42;9.13;;;6.93;;
50319;SDS011;36226;53.464;9.852;2022-08-03T00:33:07;15.68;;;9.30;;
50319;SDS011;36226;53.464;9.852;2022-08-03T00:35:34;9.68;;;5.97;;
50319;SDS011;36226;53.464;9.852;2022-08-03T00:37:59;7.53;;;5.05;;
50319;SDS011;36226;53.464;9.852;2022-08-03T00:40:25;6.40;;;4.60;;
50319;SDS011;36226;53.464;9.852;2022-08-03T00:45:22;4.40;;;4.00;;
50319;SDS011;36226;53.464;9.852;2022-08-03T00:47:51;6.20;;;4.35;;
50319;SDS011;36226;53.464;9.852;2022-08-03T00:50:17;5.10;;;4.00;;
50319;SDS011;36226;53.464;9.852;2022-08-03T00:52:43;5.20;;;4.30;;
50319;SDS011;36226;53.464;9.852;2022-08-03T00:55:09;5.00;;;4.50;;
50319;SDS011;36226;53.464;9.852;2022-08-03T00:57:35;5.45;;;4.15;;
50319;SDS011;36226;53.464;9.852;2022-08-03T01:00:01;4.50;;;4.10;;
50319;SDS011;36226;53.464;9.852;2022-08-03T01:02:27;6.60;;;4.35;;
50319;SDS011;36226;53.464;9.852;2022-08-03T01:04:53;4.70;;;4.20;;
50319;SDS011;36226;53.464;9.852;2022-08-03T01:07:26;6.00;;;4.28;;
50319;SDS011;36226;53.464;9.852;2022-08-03T01:18:44;4.70;;;4.30;;
50319;SDS011;36226;53.464;9.852;2022-08-03T01:21:32;5.32;;;4.30;;
50319;SDS011;36226;53.464;9.852;2022-08-03T01:35:21;4.53;;;4.13;;
50319;SDS011;36226;53.464;9.852;2022-08-03T01:37:58;5.07;;;4.50;;
50319;SDS011;36226;53.464;9.852;2022-08-03T01:40:26;4.50;;;4.10;;
50319;SDS011;36226;53.464;9.852;2022-08-03T01:42:53;4.65;;;4.20;;
50319;SDS011;36226;53.464;9.852;2022-08-03T01:45:19;5.65;;;4.38;;
50319;SDS011;36226;53.464;9.852;2022-08-03T01:47:46;5.38;;;4.30;;
50319;SDS011;36226;53.464;9.852;2022-08-03T01:50:13;5.53;;;4.25;;
50319;SDS011;36226;53.464;9.852;2022-08-03T01:52:39;9.15;;;4.43;;
50319;SDS011;36226;53.464;9.852;2022-08-03T01:55:06;4.20;;;3.80;;
50319;SDS011;36226;53.464;9.852;2022-08-03T01:57:33;5.25;;;3.50;;
50319;SDS011;36226;53.464;9.852;2022-08-03T01:59:59;4.47;;;4.03;;
50319;SDS011;36226;53.464;9.852;2022-08-03T02:02:24;4.65;;;4.25;;
50319;SDS011;36226;53.464;9.852;2022-08-03T02:04:51;7.68;;;3.70;;
50319;SDS011;36226;53.464;9.852;2022-08-03T02:07:17;4.65;;;3.95;;
50319;SDS011;36226;53.464;9.852;2022-08-03T02:09:44;7.03;;;4.30;;
50319;SDS011;36226;53.464;9.852;2022-08-03T02:12:11;3.90;;;3.50;;
50319;SDS011;36226;53.464;9.852;2022-08-03T02:14:38;6.13;;;3.60;;
50319;SDS011;36226;53.464;9.852;2022-08-03T02:17:06;4.60;;;3.75;;
50319;SDS011;36226;53.464;9.852;2022-08-03T02:19:31;4.43;;;3.55;;
50319;SDS011;36226;53.464;9.852;2022-08-03T02:21:57;4.28;;;3.45;;
50319;SDS011;36226;53.464;9.852;2022-08-03T02:24:22;3.83;;;3.40;;
50319;SDS011;36226;53.464;9.852;2022-08-03T02:26:48;6.15;;;3.10;;
50319;SDS011;36226;53.464;9.852;2022-08-03T02:29:17;5.95;;;3.55;;
50319;SDS011;36226;53.464;9.852;2022-08-03T02:31:44;7.07;;;3.15;;
50319;SDS011;36226;53.464;9.852;2022-08-03T02:34:11;4.13;;;3.17;;
50319;SDS011;36226;53.464;9.852;2022-08-03T02:36:38;4.47;;;3.17;;
50319;SDS011;36226;53.464;9.852;2022-08-03T02:39:04;3.50;;;3.17;;
50319;SDS011;36226;53.464;9.852;2022-08-03T02:41:37;3.33;;;3.03;;
50319;SDS011;36226;53.464;9.852;2022-08-03T02:44:08;4.60;;;3.47;;
50319;SDS011;36226;53.464;9.852;2022-08-03T02:46:36;3.30;;;3.00;;
50319;SDS011;36226;53.464;9.852;2022-08-03T02:49:08;3.65;;;3.30;;
50319;SDS011;36226;53.464;9.852;2022-08-03T02:51:36;3.75;;;3.25;;
50319;SDS011;36226;53.464;9.852;2022-08-03T02:54:05;3.25;;;2.90;;
50319;SDS011;36226;53.464;9.852;2022-08-03T02:56:33;4.93;;;3.75;;
50319;SDS011;36226;53.464;9.852;2022-08-03T02:58:59;5.93;;;3.30;;
50319;SDS011;36226;53.464;9.852;2022-08-03T03:01:26;4.28;;;2.90;;
50319;SDS011;36226;53.464;9.852;2022-08-03T03:03:52;3.47;;;3.17;;
50319;SDS011;36226;53.464;9.852;2022-08-03T03:06:19;3.67;;;3.35;;
50319;SDS011;36226;53.464;9.852;2022-08-03T03:08:45;4.53;;;3.20;;
50319;SDS011;36226;53.464;9.852;2022-08-03T03:11:12;3.70;;;3.05;;
50319;SDS011;36226;53.464;9.852;2022-08-03T03:13:38;4.45;;;3.30;;
50319;SDS011;36226;53.464;9.852;2022-08-03T03:16:03;4.45;;;3.35;;
50319;SDS011;36226;53.464;9.852;2022-08-03T03:18:30;3.85;;;3.22;;
50319;SDS011;36226;53.464;9.852;2022-08-03T03:20:57;4.00;;;3.15;;
50319;SDS011;36226;53.464;9.852;2022-08-03T03:23:23;3.70;;;3.15;;
50319;SDS011;36226;53.464;9.852;2022-08-03T03:25:49;3.70;;;3.40;;
50319;SDS011;36226;53.464;9.852;2022-08-03T03:28:15;3.38;;;2.95;;
50319;SDS011;36226;53.464;9.852;2022-08-03T03:30:41;3.78;;;3.03;;
50319;SDS011;36226;53.464;9.852;2022-08-03T03:33:06;4.47;;;2.50;;
50319;SDS011;36226;53.464;9.852;2022-08-03T03:35:32;3.97;;;2.83;;
50319;SDS011;36226;53.464;9.852;2022-08-03T03:37:57;3.47;;;2.63;;
50319;SDS011;36226;53.464;9.852;2022-08-03T03:40:23;3.78;;;2.47;;
50319;SDS011;36226;53.464;9.852;2022-08-03T03:42:49;3.33;;;2.33;;
50319;SDS011;36226;53.464;9.852;2022-08-03T03:45:14;3.75;;;2.70;;
50319;SDS011;36226;53.464;9.852;2022-08-03T03:47:40;3.55;;;2.45;;
50319;SDS011;36226;53.464;9.852;2022-08-03T03:50:05;3.90;;;2.50;;
50319;SDS011;36226;53.464;9.852;2022-08-03T03:52:31;4.35;;;2.42;;
50319;SDS011;36226;53.464;9.852;2022-08-03T03:54:57;2.95;;;2.65;;
50319;SDS011;36226;53.464;9.852;2022-08-03T03:57:22;5.47;;;2.70;;
50319;SDS011;36226;53.464;9.852;2022-08-03T03:59:48;3.90;;;2.42;;
50319;SDS011;36226;53.464;9.852;2022-08-03T04:02:13;4.05;;;2.70;;
50319;SDS011;36226;53.464;9.852;2022-08-03T04:04:38;5.63;;;2.60;;
50319;SDS011;36226;53.464;9.852;2022-08-03T04:07:23;3.05;;;2.45;;
50319;SDS011;36226;53.464;9.852;2022-08-03T04:10:18;3.35;;;2.53;;
50319;SDS011;36226;53.464;9.852;2022-08-03T04:13:05;2.63;;;2.22;;
50319;SDS011;36226;53.464;9.852;2022-08-03T04:15:33;6.22;;;2.38;;
50319;SDS011;36226;53.464;9.852;2022-08-03T04:18:00;3.95;;;2.67;;
50319;SDS011;36226;53.464;9.852;2022-08-03T04:20:28;5.43;;;2.70;;
50319;SDS011;36226;53.464;9.852;2022-08-03T04:22:55;3.53;;;2.30;;
50319;SDS011;36226;53.464;9.852;2022-08-03T04:25:20;4.75;;;3.15;;
50319;SDS011;36226;53.464;9.852;2022-08-03T04:27:49;3.42;;;2.72;;
50319;SDS011;36226;53.464;9.852;2022-08-03T04:30:20;2.83;;;2.63;;
50319;SDS011;36226;53.464;9.852;2022-08-03T04:32:46;5.45;;;3.58;;
50319;SDS011;36226;53.464;9.852;2022-08-03T04:35:15;2.78;;;2.35;;
50319;SDS011;36226;53.464;9.852;2022-08-03T04:37:42;5.93;;;2.53;;
50319;SDS011;36226;53.464;9.852;2022-08-03T04:40:18;3.50;;;3.20;;
50319;SDS011;36226;53.464;9.852;2022-08-03T04:42:46;4.82;;;4.00;;
50319;SDS011;36226;53.464;9.852;2022-08-03T04:45:13;2.80;;;2.40;;
50319;SDS011;36226;53.464;9.852;2022-08-03T04:47:40;5.97;;;2.65;;
50319;SDS011;36226;53.464;9.852;2022-08-03T04:50:06;4.07;;;2.42;;
50319;SDS011;36226;53.464;9.852;2022-08-03T04:52:32;4.05;;;2.30;;
50319;SDS011;36226;53.464;9.852;2022-08-03T04:54:58;3.53;;;2.53;;
50319;SDS011;36226;53.464;9.852;2022-08-03T04:57:24;2.85;;;2.40;;
50319;SDS011;36226;53.464;9.852;2022-08-03T04:59:50;3.20;;;2.40;;
50319;SDS011;36226;53.464;9.852;2022-08-03T05:02:18;3.72;;;2.78;;
50319;SDS011;36226;53.464;9.852;2022-08-03T05:04:43;2.40;;;2.20;;
50319;SDS011;36226;53.464;9.852;2022-08-03T05:07:11;5.05;;;2.60;;
50319;SDS011;36226;53.464;9.852;2022-08-03T05:09:36;3.47;;;2.80;;
50319;SDS011;36226;53.464;9.852;2022-08-03T05:12:02;5.43;;;2.50;;
50319;SDS011;36226;53.464;9.852;2022-08-03T05:14:28;4.55;;;2.50;;
50319;SDS011;36226;53.464;9.852;2022-08-03T05:16:54;3.70;;;2.63;;
50319;SDS011;36226;53.464;9.852;2022-08-03T05:19:19;3.00;;;2.65;;
50319;SDS011;36226;53.464;9.852;2022-08-03T05:21:44;3.40;;;2.60;;
50319;SDS011;36226;53.464;9.852;2022-08-03T05:24:10;2.70;;;2.45;;
50319;SDS011;36226;53.464;9.852;2022-08-03T05:26:35;3.15;;;2.70;;
50319;SDS011;36226;53.464;9.852;2022-08-03T05:29:01;3.65;;;2.50;;
50319;SDS011;36226;53.464;9.852;2022-08-03T05:31:26;4.05;;;2.80;;
50319;SDS011;36226;53.464;9.852;2022-08-03T05:33:51;4.47;;;2.70;;
50319;SDS011;36226;53.464;9.852;2022-08-03T05:36:17;4.25;;;2.47;;
50319;SDS011;36226;53.464;9.852;2022-08-03T05:38:42;4.95;;;2.60;;
50319;SDS011;36226;53.464;9.852;2022-08-03T05:41:07;5.05;;;2.20;;
50319;SDS011;36226;53.464;9.852;2022-08-03T05:43:33;2.60;;;2.40;;
50319;SDS011;36226;53.464;9.852;2022-08-03T05:45:58;5.03;;;2.03;;
50319;SDS011;36226;53.464;9.852;2022-08-03T05:48:25;3.72;;;2.35;;
50319;SDS011;36226;53.464;9.852;2022-08-03T05:50:50;2.92;;;2.22;;
50319;SDS011;36226;53.464;9.852;2022-08-03T05:53:15;3.78;;;2.28;;
50319;SDS011;36226;53.464;9.852;2022-08-03T05:55:41;3.25;;;2.22;;
50319;SDS011;36226;53.464;9.852;2022-08-03T05:58:06;3.55;;;2.35;;
50319;SDS011;36226;53.464;9.852;2022-08-03T06:00:31;3.25;;;2.25;;
50319;SDS011;36226;53.464;9.852;2022-08-03T06:02:57;3.10;;;2.30;;
50319;SDS011;36226;53.464;9.852;2022-08-03T06:05:22;3.22;;;2.40;;
50319;SDS011;36226;53.464;9.852;2022-08-03T06:07:50;5.32;;;2.17;;
50319;SDS011;36226;53.464;9.852;2022-08-03T06:10:16;4.22;;;2.50;;
50319;SDS011;36226;53.464;9.852;2022-08-03T06:12:41;2.15;;;1.95;;
50319;SDS011;36226;53.464;9.852;2022-08-03T06:15:07;3.20;;;2.17;;
50319;SDS011;36226;53.464;9.852;2022-08-03T06:17:32;3.83;;;2.10;;
50319;SDS011;36226;53.464;9.852;2022-08-03T06:19:58;2.65;;;1.65;;
50319;SDS011;36226;53.464;9.852;2022-08-03T06:22:23;3.88;;;2.38;;
50319;SDS011;36226;53.464;9.852;2022-08-03T06:24:49;3.92;;;2.10;;
50319;SDS011;36226;53.464;9.852;2022-08-03T06:27:14;3.78;;;1.88;;
50319;SDS011;36226;53.464;9.852;2022-08-03T06:29:40;4.35;;;2.03;;
50319;SDS011;36226;53.464;9.852;2022-08-03T06:32:05;2.47;;;1.80;;
50319;SDS011;36226;53.464;9.852;2022-08-03T06:34:31;2.40;;;1.88;;
50319;SDS011;36226;53.464;9.852;2022-08-03T06:36:56;2.50;;;2.05;;
50319;SDS011;36226;53.464;9.852;2022-08-03T06:39:21;3.33;;;2.08;;
50319;SDS011;36226;53.464;9.852;2022-08-03T06:41:47;3.88;;;2.30;;
50319;SDS011;36226;53.464;9.852;2022-08-03T06:44:12;3.13;;;1.92;;
50319;SDS011;36226;53.464;9.852;2022-08-03T06:46:37;2.45;;;1.85;;
50319;SDS011;36226;53.464;9.852;2022-08-03T06:49:03;2.10;;;1.90;;
50319;SDS011;36226;53.464;9.852;2022-08-03T06:51:28;3.83;;;2.00;;
50319;SDS011;36226;53.464;9.852;2022-08-03T06:53:53;2.90;;;1.83;;
50319;SDS011;36226;53.464;9.852;2022-08-03T06:56:19;3.40;;;2.03;;
50319;SDS011;36226;53.464;9.852;2022-08-03T06:58:44;3.78;;;2.45;;
50319;SDS011;36226;53.464;9.852;2022-08-03T07:01:11;2.47;;;2.00;;
50319;SDS011;36226;53.464;9.852;2022-08-03T07:03:36;6.35;;;2.45;;
50319;SDS011;36226;53.464;9.852;2022-08-03T07:06:02;7.95;;;2.30;;
50319;SDS011;36226;53.464;9.852;2022-08-03T07:08:27;6.22;;;2.50;;
50319;SDS011;36226;53.464;9.852;2022-08-03T07:10:53;3.78;;;2.00;;
50319;SDS011;36226;53.464;9.852;2022-08-03T07:13:18;3.45;;;2.10;;
50319;SDS011;36226;53.464;9.852;2022-08-03T07:15:43;2.47;;;2.05;;
50319;SDS011;36226;53.464;9.852;2022-08-03T07:18:09;5.60;;;2.28;;
50319;SDS011;36226;53.464;9.852;2022-08-03T07:20:34;3.38;;;2.38;;
50319;SDS011;36226;53.464;9.852;2022-08-03T07:22:59;6.93;;;2.22;;
50319;SDS011;36226;53.464;9.852;2022-08-03T07:25:25;6.38;;;2.67;;
50319;SDS011;36226;53.464;9.852;2022-08-03T07:27:50;4.18;;;2.20;;
50319;SDS011;36226;53.464;9.852;2022-08-03T07:30:16;3.15;;;1.73;;
50319;SDS011;36226;53.464;9.852;2022-08-03T07:32:41;4.03;;;2.05;;
50319;SDS011;36226;53.464;9.852;2022-08-03T07:35:07;3.42;;;1.95;;
50319;SDS011;36226;53.464;9.852;2022-08-03T07:37:33;2.70;;;1.95;;
50319;SDS011;36226;53.464;9.852;2022-08-03T07:39:59;3.15;;;1.73;;
50319;SDS011;36226;53.464;9.852;2022-08-03T07:42:28;3.42;;;1.88;;
50319;SDS011;36226;53.464;9.852;2022-08-03T07:44:53;2.30;;;1.90;;
50319;SDS011;36226;53.464;9.852;2022-08-03T07:47:19;3.38;;;2.00;;
50319;SDS011;36226;53.464;9.852;2022-08-03T07:49:46;3.65;;;1.90;;
50319;SDS011;36226;53.464;9.852;2022-08-03T07:52:12;3.67;;;1.75;;
50319;SDS011;36226;53.464;9.852;2022-08-03T07:54:56;2.92;;;2.08;;
50319;SDS011;36226;53.464;9.852;2022-08-03T07:57:21;3.75;;;1.88;;
50319;SDS011;36226;53.464;9.852;2022-08-03T07:59:47;3.15;;;1.83;;
50319;SDS011;36226;53.464;9.852;2022-08-03T08:02:12;3.35;;;1.90;;
50319;SDS011;36226;53.464;9.852;2022-08-03T08:04:38;3.30;;;1.90;;
50319;SDS011;36226;53.464;9.852;2022-08-03T08:07:04;3.85;;;1.75;;
50319;SDS011;36226;53.464;9.852;2022-08-03T08:09:29;3.10;;;1.80;;
50319;SDS011;36226;53.464;9.852;2022-08-03T08:11:54;2.38;;;1.90;;
50319;SDS011;36226;53.464;9.852;2022-08-03T08:14:20;3.90;;;2.10;;
50319;SDS011;36226;53.464;9.852;2022-08-03T08:16:45;2.70;;;1.77;;
50319;SDS011;36226;53.464;9.852;2022-08-03T08:19:11;2.65;;;1.80;;
50319;SDS011;36226;53.464;9.852;2022-08-03T08:21:38;4.35;;;1.75;;
50319;SDS011;36226;53.464;9.852;2022-08-03T08:24:04;2.13;;;1.73;;
50319;SDS011;36226;53.464;9.852;2022-08-03T08:26:30;3.60;;;1.95;;
50319;SDS011;36226;53.464;9.852;2022-08-03T08:28:55;5.15;;;1.90;;
50319;SDS011;36226;53.464;9.852;2022-08-03T08:31:20;3.20;;;1.90;;
50319;SDS011;36226;53.464;9.852;2022-08-03T08:33:46;3.55;;;1.80;;
50319;SDS011;36226;53.464;9.852;2022-08-03T08:36:11;2.30;;;1.80;;
50319;SDS011;36226;53.464;9.852;2022-08-03T08:38:36;2.78;;;1.80;;
50319;SDS011;36226;53.464;9.852;2022-08-03T08:41:02;3.55;;;1.75;;
50319;SDS011;36226;53.464;9.852;2022-08-03T08:43:28;2.10;;;1.63;;
50319;SDS011;36226;53.464;9.852;2022-08-03T08:45:53;3.42;;;1.75;;
50319;SDS011;36226;53.464;9.852;2022-08-03T08:48:22;3.20;;;1.58;;
50319;SDS011;36226;53.464;9.852;2022-08-03T08:50:53;5.85;;;1.90;;
50319;SDS011;36226;53.464;9.852;2022-08-03T08:53:20;3.17;;;1.73;;
50319;SDS011;36226;53.464;9.852;2022-08-03T08:55:46;6.28;;;2.03;;
50319;SDS011;36226;53.464;9.852;2022-08-03T08:58:12;2.15;;;1.55;;
50319;SDS011;36226;53.464;9.852;2022-08-03T09:00:38;3.38;;;1.80;;
50319;SDS011;36226;53.464;9.852;2022-08-03T09:03:03;3.20;;;1.70;;
50319;SDS011;36226;53.464;9.852;2022-08-03T09:05:28;2.53;;;1.60;;
50319;SDS011;36226;53.464;9.852;2022-08-03T09:07:56;2.75;;;1.65;;
50319;SDS011;36226;53.464;9.852;2022-08-03T09:10:22;3.05;;;1.70;;
50319;SDS011;36226;53.464;9.852;2022-08-03T09:12:48;3.40;;;2.08;;
50319;SDS011;36226;53.464;9.852;2022-08-03T09:15:20;2.97;;;1.70;;
50319;SDS011;36226;53.464;9.852;2022-08-03T09:17:46;1.88;;;1.52;;
50319;SDS011;36226;53.464;9.852;2022-08-03T09:20:11;4.28;;;1.50;;
50319;SDS011;36226;53.464;9.852;2022-08-03T09:22:50;2.42;;;1.48;;
50319;SDS011;36226;53.464;9.852;2022-08-03T09:25:26;4.70;;;1.48;;
50319;SDS011;36226;53.464;9.852;2022-08-03T09:28:11;5.28;;;1.70;;
50319;SDS011;36226;53.464;9.852;2022-08-03T09:30:43;3.25;;;1.30;;
50319;SDS011;36226;53.464;9.852;2022-08-03T09:33:10;3.33;;;1.60;;
50319;SDS011;36226;53.464;9.852;2022-08-03T09:35:41;4.72;;;1.42;;
50319;SDS011;36226;53.464;9.852;2022-08-03T09:40:36;3.28;;;1.20;;
50319;SDS011;36226;53.464;9.852;2022-08-03T09:43:01;3.40;;;1.23;;
50319;SDS011;36226;53.464;9.852;2022-08-03T09:45:27;4.35;;;1.40;;
50319;SDS011;36226;53.464;9.852;2022-08-03T09:47:53;4.88;;;1.63;;
50319;SDS011;36226;53.464;9.852;2022-08-03T09:50:19;4.22;;;1.50;;
50319;SDS011;36226;53.464;9.852;2022-08-03T09:52:44;3.17;;;1.33;;
50319;SDS011;36226;53.464;9.852;2022-08-03T09:55:12;6.22;;;1.58;;
50319;SDS011;36226;53.464;9.852;2022-08-03T09:57:38;4.55;;;1.50;;
50319;SDS011;36226;53.464;9.852;2022-08-03T10:00:11;3.72;;;1.50;;
50319;SDS011;36226;53.464;9.852;2022-08-03T10:02:39;4.22;;;1.20;;
50319;SDS011;36226;53.464;9.852;2022-08-03T10:05:05;3.65;;;1.40;;
50319;SDS011;36226;53.464;9.852;2022-08-03T10:07:42;2.53;;;1.17;;
50319;SDS011;36226;53.464;9.852;2022-08-03T10:10:07;3.97;;;1.42;;
50319;SDS011;36226;53.464;9.852;2022-08-03T10:12:34;1.90;;;1.20;;
50319;SDS011;36226;53.464;9.852;2022-08-03T10:15:00;3.92;;;1.45;;
50319;SDS011;36226;53.464;9.852;2022-08-03T10:17:26;4.53;;;1.30;;
50319;SDS011;36226;53.464;9.852;2022-08-03T10:19:52;3.45;;;1.13;;
50319;SDS011;36226;53.464;9.852;2022-08-03T10:22:21;3.75;;;1.40;;
50319;SDS011;36226;53.464;9.852;2022-08-03T10:25:09;4.25;;;1.30;;
50319;SDS011;36226;53.464;9.852;2022-08-03T10:27:37;4.18;;;1.08;;
50319;SDS011;36226;53.464;9.852;2022-08-03T10:30:06;4.57;;;1.30;;
50319;SDS011;36226;53.464;9.852;2022-08-03T10:32:33;6.32;;;1.60;;
50319;SDS011;36226;53.464;9.852;2022-08-03T10:35:06;4.40;;;1.70;;
50319;SDS011;36226;53.464;9.852;2022-08-03T10:37:34;5.03;;;1.42;;
50319;SDS011;36226;53.464;9.852;2022-08-03T10:40:02;2.65;;;1.40;;
50319;SDS011;36226;53.464;9.852;2022-08-03T10:42:28;4.68;;;1.50;;
50319;SDS011;36226;53.464;9.852;2022-08-03T10:45:05;3.75;;;1.60;;
50319;SDS011;36226;53.464;9.852;2022-08-03T10:47:32;2.53;;;1.15;;
50319;SDS011;36226;53.464;9.852;2022-08-03T10:49:58;3.08;;;1.27;;
50319;SDS011;36226;53.464;9.852;2022-08-03T10:52:24;4.10;;;1.08;;
50319;SDS011;36226;53.464;9.852;2022-08-03T10:54:49;3.70;;;1.40;;
50319;SDS011;36226;53.464;9.852;2022-08-03T10:57:46;5.30;;;1.23;;
50319;SDS011;36226;53.464;9.852;2022-08-03T11:03:00;7.60;;;1.73;;
50319;SDS011;36226;53.464;9.852;2022-08-03T11:05:27;3.45;;;1.40;;
50319;SDS011;36226;53.464;9.852;2022-08-03T11:10:52;5.22;;;1.30;;
50319;SDS011;36226;53.464;9.852;2022-08-03T11:13:23;2.25;;;1.20;;
50319;SDS011;36226;53.464;9.852;2022-08-03T11:15:50;3.55;;;1.13;;
50319;SDS011;36226;53.464;9.852;2022-08-03T11:18:17;4.32;;;1.30;;
50319;SDS011;36226;53.464;9.852;2022-08-03T11:20:50;2.75;;;1.38;;
50319;SDS011;36226;53.464;9.852;2022-08-03T11:23:39;2.40;;;1.00;;
50319;SDS011;36226;53.464;9.852;2022-08-03T11:26:16;2.45;;;1.30;;
50319;SDS011;36226;53.464;9.852;2022-08-03T11:28:43;6.22;;;1.60;;
50319;SDS011;36226;53.464;9.852;2022-08-03T11:36:28;3.35;;;1.40;;
50319;SDS011;36226;53.464;9.852;2022-08-03T11:39:12;3.47;;;1.13;;
50319;SDS011;36226;53.464;9.852;2022-08-03T11:41:38;3.60;;;1.17;;
50319;SDS011;36226;53.464;9.852;2022-08-03T11:44:03;2.35;;;1.30;;
50319;SDS011;36226;53.464;9.852;2022-08-03T11:46:28;3.10;;;1.20;;
50319;SDS011;36226;53.464;9.852;2022-08-03T11:49:02;5.88;;;1.50;;
50319;SDS011;36226;53.464;9.852;2022-08-03T11:51:29;5.15;;;1.55;;
50319;SDS011;36226;53.464;9.852;2022-08-03T11:56:22;4.57;;;1.42;;
50319;SDS011;36226;53.464;9.852;2022-08-03T11:58:52;2.70;;;1.00;;
50319;SDS011;36226;53.464;9.852;2022-08-03T12:01:20;3.17;;;1.63;;
50319;SDS011;36226;53.464;9.852;2022-08-03T12:03:46;4.05;;;1.30;;
50319;SDS011;36226;53.464;9.852;2022-08-03T12:06:12;2.78;;;1.30;;
50319;SDS011;36226;53.464;9.852;2022-08-03T12:08:39;5.57;;;1.70;;
50319;SDS011;36226;53.464;9.852;2022-08-03T12:11:07;3.97;;;1.30;;
50319;SDS011;36226;53.464;9.852;2022-08-03T12:13:43;5.70;;;1.40;;
50319;SDS011;36226;53.464;9.852;2022-08-03T12:16:18;5.13;;;1.25;;
50319;SDS011;36226;53.464;9.852;2022-08-03T12:18:43;3.55;;;1.20;;
50319;SDS011;36226;53.464;9.852;2022-08-03T12:21:09;4.78;;;1.20;;
50319;SDS011;36226;53.464;9.852;2022-08-03T12:23:36;4.20;;;1.40;;
50319;SDS011;36226;53.464;9.852;2022-08-03T12:26:04;4.63;;;1.20;;
50319;SDS011;36226;53.464;9.852;2022-08-03T12:28:33;7.45;;;1.60;;
50319;SDS011;36226;53.464;9.852;2022-08-03T12:31:01;4.45;;;1.35;;
50319;SDS011;36226;53.464;9.852;2022-08-03T12:33:27;3.17;;;1.20;;
50319;SDS011;36226;53.464;9.852;2022-08-03T12:36:06;4.82;;;1.60;;
50319;SDS011;36226;53.464;9.852;2022-08-03T12:38:33;4.50;;;1.85;;
50319;SDS011;36226;53.464;9.852;2022-08-03T12:41:04;4.22;;;1.45;;
50319;SDS011;36226;53.464;9.852;2022-08-03T12:43:31;4.40;;;1.48;;
50319;SDS011;36226;53.464;9.852;2022-08-03T12:46:09;4.20;;;1.15;;
50319;SDS011;36226;53.464;9.852;2022-08-03T12:48:35;2.38;;;1.30;;
50319;SDS011;36226;53.464;9.852;2022-08-03T12:51:08;6.82;;;1.40;;
50319;SDS011;36226;53.464;9.852;2022-08-03T12:53:34;4.00;;;1.60;;
50319;SDS011;36226;53.464;9.852;2022-08-03T12:56:00;5.40;;;1.60;;
50319;SDS011;36226;53.464;9.852;2022-08-03T12:58:28;5.57;;;1.30;;
50319;SDS011;36226;53.464;9.852;2022-08-03T13:00:57;4.28;;;1.35;;
50319;SDS011;36226;53.464;9.852;2022-08-03T13:03:23;5.38;;;1.40;;
50319;SDS011;36226;53.464;9.852;2022-08-03T13:05:48;3.30;;;1.42;;
50319;SDS011;36226;53.464;9.852;2022-08-03T13:08:20;5.20;;;1.20;;
50319;SDS011;36226;53.464;9.852;2022-08-03T13:10:47;4.60;;;1.23;;
50319;SDS011;36226;53.464;9.852;2022-08-03T13:13:12;5.47;;;1.40;;
50319;SDS011;36226;53.464;9.852;2022-08-03T13:15:38;6.55;;;1.88;;
50319;SDS011;36226;53.464;9.852;2022-08-03T13:18:03;4.55;;;1.33;;
50319;SDS011;36226;53.464;9.852;2022-08-03T13:20:29;5.13;;;1.35;;
50319;SDS011;36226;53.464;9.852;2022-08-03T13:22:54;5.55;;;1.45;;
50319;SDS011;36226;53.464;9.852;2022-08-03T13:25:20;3.45;;;1.33;;
50319;SDS011;36226;53.464;9.852;2022-08-03T13:27:46;3.65;;;1.73;;
50319;SDS011;36226;53.464;9.852;2022-08-03T13:30:12;4.13;;;1.02;;
50319;SDS011;36226;53.464;9.852;2022-08-03T13:32:37;4.50;;;1.27;;
50319;SDS011;36226;53.464;9.852;2022-08-03T13:35:03;4.03;;;1.30;;
50319;SDS011;36226;53.464;9.852;2022-08-03T13:37:29;3.72;;;1.30;;
50319;SDS011;36226;53.464;9.852;2022-08-03T13:39:56;5.18;;;1.30;;
50319;SDS011;36226;53.464;9.852;2022-08-03T13:42:22;3.15;;;1.20;;
50319;SDS011;36226;53.464;9.852;2022-08-03T13:44:47;3.90;;;1.40;;
50319;SDS011;36226;53.464;9.852;2022-08-03T13:47:12;5.47;;;1.52;;
50319;SDS011;36226;53.464;9.852;2022-08-03T13:49:38;3.22;;;1.30;;
50319;SDS011;36226;53.464;9.852;2022-08-03T13:52:03;3.10;;;1.10;;
50319;SDS011;36226;53.464;9.852;2022-08-03T13:54:28;3.25;;;1.30;;
50319;SDS011;36226;53.464;9.852;2022-08-03T13:56:54;3.83;;;1.38;;
50319;SDS011;36226;53.464;9.852;2022-08-03T13:59:20;4.38;;;1.30;;
50319;SDS011;36226;53.464;9.852;2022-08-03T14:01:47;6.22;;;1.23;;
50319;SDS011;36226;53.464;9.852;2022-08-03T14:04:13;4.32;;;1.50;;
50319;SDS011;36226;53.464;9.852;2022-08-03T14:06:38;4.00;;;1.35;;
50319;SDS011;36226;53.464;9.852;2022-08-03T14:09:03;8.30;;;1.45;;
50319;SDS011;36226;53.464;9.852;2022-08-03T14:11:29;10.30;;;1.50;;
50319;SDS011;36226;53.464;9.852;2022-08-03T14:13:54;3.42;;;1.10;;
50319;SDS011;36226;53.464;9.852;2022-08-03T14:16:20;5.20;;;1.40;;
50319;SDS011;36226;53.464;9.852;2022-08-03T14:18:45;7.57;;;1.52;;
50319;SDS011;36226;53.464;9.852;2022-08-03T14:21:10;3.78;;;1.38;;
50319;SDS011;36226;53.464;9.852;2022-08-03T14:23:36;6.15;;;1.40;;
50319;SDS011;36226;53.464;9.852;2022-08-03T14:26:02;6.47;;;1.50;;
50319;SDS011;36226;53.464;9.852;2022-08-03T14:28:28;5.50;;;1.30;;
50319;SDS011;36226;53.464;9.852;2022-08-03T14:30:54;4.90;;;1.92;;
50319;SDS011;36226;53.464;9.852;2022-08-03T14:33:19;4.43;;;1.88;;
50319;SDS011;36226;53.464;9.852;2022-08-03T14:35:45;1.63;;;1.08;;
50319;SDS011;36226;53.464;9.852;2022-08-03T14:38:11;3.88;;;1.20;;
50319;SDS011;36226;53.464;9.852;2022-08-03T14:40:36;3.42;;;1.40;;
50319;SDS011;36226;53.464;9.852;2022-08-03T14:43:01;4.85;;;1.55;;
50319;SDS011;36226;53.464;9.852;2022-08-03T14:45:27;2.83;;;1.00;;
50319;SDS011;36226;53.464;9.852;2022-08-03T14:47:52;5.22;;;1.30;;
50319;SDS011;36226;53.464;9.852;2022-08-03T14:50:17;2.95;;;1.13;;
50319;SDS011;36226;53.464;9.852;2022-08-03T14:52:43;4.80;;;1.63;;
50319;SDS011;36226;53.464;9.852;2022-08-03T14:55:08;3.80;;;1.45;;
50319;SDS011;36226;53.464;9.852;2022-08-03T14:57:33;4.72;;;1.42;;
50319;SDS011;36226;53.464;9.852;2022-08-03T14:59:59;4.88;;;1.50;;
50319;SDS011;36226;53.464;9.852;2022-08-03T15:02:24;5.85;;;1.27;;
50319;SDS011;36226;53.464;9.852;2022-08-03T15:04:50;5.80;;;1.45;;
50319;SDS011;36226;53.464;9.852;2022-08-03T15:07:15;4.60;;;1.20;;
50319;SDS011;36226;53.464;9.852;2022-08-03T15:09:41;4.78;;;1.20;;
50319;SDS011;36226;53.464;9.852;2022-08-03T15:12:06;4.18;;;1.20;;
50319;SDS011;36226;53.464;9.852;2022-08-03T15:14:32;2.15;;;0.93;;
50319;SDS011;36226;53.464;9.852;2022-08-03T15:16:57;2.40;;;1.10;;
50319;SDS011;36226;53.464;9.852;2022-08-03T15:19:23;5.90;;;1.38;;
50319;SDS011;36226;53.464;9.852;2022-08-03T15:21:48;4.18;;;1.17;;
50319;SDS011;36226;53.464;9.852;2022-08-03T15:24:13;3.60;;;1.20;;
50319;SDS011;36226;53.464;9.852;2022-08-03T15:26:39;6.35;;;1.50;;